Tiempo atmosférico en la estación meteorológica de Bossòst, Lleida (725 m.)



Fecha
DESCASC
Temp. máxima en grados centígrados (hora)
DESCASC
Temp. mínima en grados centígrados (hora)
DESCASC
Temp. media en grados centígrados
DESCASC
Racha de viento máxima en m/sg (hora)
DESCASC
Velocidad máxima media en intervalos de 10 minutos(hora)
DESCASC
Precipitaciones diarias en mm
DESCASC
Precipitaciones de 00:00 a 06:00 en mm
DESCASC
Precipitaciones de 06:00 a 12:00 en mm
DESCASC
Precipitaciones de 12:00 a 18:00 en mm
DESCASC
Precipitaciones de 18:00 a 24:00 en mm
DESCASC
23-05-2018 23.3 (14:30) 8.1 (05:20) 15.7 8.33 (15:40) 4.72 (15:30) 3.6 0 0 0.2 3.4
22-05-2018 19.7 (13:30) 9.7 (03:30) 14.7 6.39 (00:20) 3.89 (00:10) 6.2 0 1.2 5 0
21-05-2018 20.3 (16:50) 8.6 (06:50) 14.4 9.44 (20:40) 5.56 (15:00) 5.6 0 0 0.2 5.4
20-05-2018 19.5 (13:20) 7.5 (00:00) 13.5 5.83 (15:40) 3.33 (13:20) 8.2 0 0 0.2 8
19-05-2018 20 (14:30) 6.8 (00:00) 13.4 10 (15:00) 4.72 (15:00) 0.8 0 0 0.8 0
18-05-2018 20.4 (15:00) 7.3 (00:00) 13.8 9.72 (17:10) 4.44 (17:20) 1.2 0 0 1.2 0
17-05-2018 19.7 (13:30) 7.3 (00:00) 13.5 7.5 (15:40) 3.89 (15:50) 0 0 0 0 0
16-05-2018 17.5 (16:10) 4.8 (00:00) 11.2 4.72 (03:10) 2.78 (03:10) 0.2 0 0 0.2 0
15-05-2018 8 (15:00) 5 (00:00) 6.5 4.17 (05:20) 3.06 (05:20) 9 2.4 2.2 3 1.4
14-05-2018 8.2 (14:50) 2.9 (00:00) 5.5 5 (12:30) 2.78 (12:30) 4.2 0.6 0 1.2 2.4
13-05-2018 11.3 (15:30) 2.3 (00:00) 6.8 8.33 (18:50) 3.89 (17:30) 2.6 1.2 0.6 0 0.8
12-05-2018 12.8 (12:20) 3.2 (00:00) 8 8.89 (13:50) 4.44 (13:40) 11.6 0 0 3 8.6
11-05-2018 23.4 (14:40) 2.5 (07:00) 12.9 8.61 (15:40) 4.44 (17:20) 0 0 0 0 0
10-05-2018 13.8 (13:10) 7.1 (00:00) 10.5 5.83 (06:20) 3.33 (12:00) 0.4 0.4 0 0 0
09-05-2018 18.2 (15:10) 9.3 (00:00) 13.8 8.33 (15:20) 4.44 (15:20) 0.4 0.4 0 0 0
08-05-2018 16.2 (16:40) 9.2 (00:00) 12.7 9.72 (04:40) 6.39 (04:40) 18 16.4 0.8 0.8 0
07-05-2018 23.9 (14:50) 9.7 (00:00) 16.8 9.17 (19:30) 4.72 (23:59) 14.6 0 0 0.2 14.4
06-05-2018 22.9 (17:20) 5.1 (00:00) 14 6.39 (15:10) 4.17 (04:50) 0 0 0 0 0
05-05-2018 16.5 (17:10) 7.5 (00:00) 12 5 (16:20) 3.33 (15:40) 2.4 1 1.4 0 0
04-05-2018 9.2 (15:00) 5.5 (00:00) 7.3 3.33 (17:50) 1.94 (18:00) 3.6 2.2 0.4 0.2 0.8
03-05-2018 7.3 (09:10) 6 (00:00) 6.7 7.22 (09:10) 3.33 (10:50) 34.8 10.6 15.4 2.8 6
02-05-2018 -- (--) -- (--) -- -- (--) -- (--) -- -- -- -- 0.8
01-05-2018 -- (--) -- (--) -- -- (--) -- (--) -- -- -- -- --
30-04-2018 -- (--) -- (--) -- -- (--) -- (--) -- -- -- -- --
29-04-2018 -- (--) -- (--) -- -- (--) -- (--) -- -- -- -- --
28-04-2018 -- (--) -- (--) -- -- (--) -- (--) -- -- -- -- --
27-04-2018 -- (--) -- (--) -- -- (--) -- (--) -- -- -- -- --
26-04-2018 -- (--) -- (--) -- -- (--) -- (--) -- -- -- -- --
25-04-2018 -- (--) -- (--) -- -- (--) -- (--) -- -- -- -- --
24-04-2018 -- (--) -- (--) -- -- (--) -- (--) -- -- -- -- --

Gráficas

Temp. máximas Temp. mínimas Temp. medias Precipitaciones Rachas de viento máximas Velocidades máximas media en intervalos de 10 minutos

Datos horarios

Fecha y hora oficial Temperatura (ºC) Velocidad del viento (km/h) Dirección del viento Racha (km/h) Dirección de racha Precipitación (mm) Presión (hPa) Tendencia (hPa) Humedad (%)
2018-05-23 23:00:00 13.4 3 Sur 9 Sudoeste 1.2 -- -- 98
2018-05-23 22:00:00 13.8 0 Calma 7 Sudoeste 0 -- -- 97
2018-05-23 21:00:00 14.8 0 Calma 4 Sudoeste 0 -- -- 94
2018-05-23 20:00:00 16.1 0 Calma 5 Oeste 0 -- -- 91
2018-05-23 19:00:00 16.2 0 Calma 19 Sudoeste 2 -- -- 89
2018-05-23 18:00:00 18.5 8 Oeste 19 Norte 0.2 -- -- 76
2018-05-23 17:00:00 21 8 Norte 28 Nordeste 0 -- -- 63
2018-05-23 16:00:00 22.5 14 Norte 30 Norte 0 -- -- 57
2018-05-23 15:00:00 23 11 Norte 22 Norte 0 -- -- 52
2018-05-23 14:00:00 22.8 11 Norte 23 Norte 0 -- -- 42
2018-05-23 13:00:00 21.5 10 Norte 17 Norte 0 -- -- 47
2018-05-23 12:00:00 19.8 6 Norte 13 Norte 0 -- -- 59
2018-05-23 11:00:00 17.4 4 Nordeste 9 Este 0 -- -- 69
2018-05-23 10:00:00 14 0 Calma 5 Oeste 0 -- -- 82
2018-05-23 09:00:00 10.7 3 Sudoeste 6 Sur 0 -- -- 97
2018-05-23 08:00:00 8.9 0 Calma 4 Sur 0 -- -- 99
2018-05-23 07:00:00 8.4 0 Calma 16 Sudoeste 0 -- -- 97
2018-05-23 06:00:00 8.3 11 Sudoeste 16 Sudoeste 0 -- -- 98
2018-05-23 05:00:00 8.2 6 Sur 14 Sudoeste 0 -- -- 99
2018-05-23 04:00:00 8.7 6 Sur 15 Sudoeste 0 -- -- 98
2018-05-23 03:00:00 9.2 9 Sudoeste 16 Sudoeste 0 -- -- 99
2018-05-23 02:00:00 9.8 2 Sur 10 Sudoeste 0 -- -- 99
2018-05-23 01:00:00 10.4 5 Sudoeste 8 Sudoeste 0 -- -- 99
2018-05-23 00:00:00 10.6 0 Calma 8 Sudoeste 0 -- -- 98
2018-05-22 23:00:00 11.6 0 Calma 6 Sudoeste 0 -- -- 98
2018-05-22 22:00:00 12.5 3 Sur 5 Sur 0 -- -- 96
2018-05-22 21:00:00 13.7 2 Sudoeste 4 Sudoeste 0 -- -- 94
2018-05-22 20:00:00 14.9 0 Calma 3 Sur 0 -- -- 94
2018-05-22 19:00:00 15.5 0 Calma 6 Sur 0 -- -- 92
2018-05-22 18:00:00 14.1 0 Calma 7 Sur 0.2 -- -- 94
2018-05-22 17:00:00 15.4 3 Sur 9 Sudoeste 1 -- -- 92
2018-05-22 16:00:00 15.3 5 Sur 18 Nordeste 3.8 -- -- 89
2018-05-22 15:00:00 17.6 8 Norte 21 Nordeste 0 -- -- 68
2018-05-22 14:00:00 18.8 8 Norte 19 Norte 0 -- -- 58
2018-05-22 13:00:00 18.7 5 Norte 11 Nordeste 0 -- -- 63
2018-05-22 12:00:00 17 4 Nordeste 11 Sudoeste 0 -- -- 72
2018-05-22 11:00:00 14.8 5 Oeste 10 Sudoeste 0 -- -- 82
2018-05-22 10:00:00 12.1 6 Oeste 13 Sudoeste 0 -- -- 96
2018-05-22 09:00:00 10.7 4 Sudoeste 10 Sudoeste 0.8 -- -- 99
2018-05-22 08:00:00 10.3 2 Sur 5 Norte 0.4 -- -- 99
2018-05-22 07:00:00 10.2 0 Calma 10 Sudoeste 0 -- -- 99
2018-05-22 06:00:00 10 2 Sur 6 Sudoeste 0 -- -- 99
2018-05-22 05:00:00 9.9 0 Calma 9 Sudoeste 0 -- -- 99
2018-05-22 04:00:00 9.8 4 Sudoeste 5 Sudoeste 0 -- -- 99
2018-05-22 03:00:00 10.1 0 Calma 6 Sudoeste 0 -- -- 97
2018-05-22 02:00:00 11 0 Calma 9 Nordeste 0 -- -- 98
2018-05-22 01:00:00 11.2 0 Calma 23 Sur 0 -- -- 96
2018-05-22 00:00:00 11.9 14 Sur 21 Sudoeste 0.6 -- -- 90
2018-05-21 23:00:00 11.8 9 Sur 21 Sudeste 0.2 -- -- 89
2018-05-21 22:00:00 11.7 5 Sudoeste 26 Sur 1.6 -- -- 91
2018-05-21 21:00:00 13.1 15 Sur 34 Sur 2 -- -- 80
2018-05-21 20:00:00 15.1 3 Sudoeste 9 Nordeste 1 -- -- 85
2018-05-21 19:00:00 18 3 Norte 15 Norte 0 -- -- 62
2018-05-21 18:00:00 18.7 0 Calma 6 Sudoeste 0 -- -- 75
2018-05-21 17:00:00 20.3 0 Calma 8 Sudoeste 0 -- -- 53
2018-05-21 16:00:00 17.1 5 Sur 30 Sudoeste 0.2 -- -- 75
2018-05-21 15:00:00 16.8 20 Sudoeste 31 Sudoeste 0 -- -- 68
2018-05-21 14:00:00 19.8 2 Nordeste 8 Nordeste 0 -- -- 54
2018-05-21 13:00:00 19.6 3 Sudoeste 8 Nordeste 0 -- -- 71
2018-05-21 12:00:00 18.7 3 Nordeste 8 Norte 0 -- -- 70
2018-05-21 11:00:00 16.2 3 Este 5 Nordeste 0 -- -- 83
2018-05-21 10:00:00 12.9 2 Nordeste 6 Norte 0 -- -- 89
2018-05-21 09:00:00 11 2 Nordeste 8 Sudoeste 0 -- -- 97
2018-05-21 08:00:00 9.6 2 Norte 6 Sudoeste 0 -- -- 100
2018-05-21 07:00:00 8.7 3 Sur 7 Sudoeste 0 -- -- 100
2018-05-21 06:00:00 9.2 3 Sudoeste 8 Sudoeste 0 -- -- 100
2018-05-21 05:00:00 9.3 2 Sur 5 Este 0 -- -- 99
2018-05-21 04:00:00 9.8 0 Calma 5 Sudoeste 0 -- -- 99
2018-05-21 03:00:00 10.1 2 Sur 6 Sur 0 -- -- 99
2018-05-21 02:00:00 10.4 4 Sur 10 Sudoeste 0 -- -- 98
2018-05-21 01:00:00 10.8 5 Sur 8 Sur 0 -- -- 98
2018-05-21 00:00:00 11.1 3 Sudeste 15 Oeste 0 -- -- 97
2018-05-20 23:00:00 11.1 7 Sudoeste 12 Sudoeste 0 -- -- 98
2018-05-20 22:00:00 11.7 2 Sur 6 Sur 0.8 -- -- 97
2018-05-20 21:00:00 12.3 0 Calma 3 Sur 3.2 -- -- 97
2018-05-20 20:00:00 12.8 2 Este 9 Sur 2.2 -- -- 93
2018-05-20 19:00:00 14.6 5 Este 9 Este 1.8 -- -- 86
2018-05-20 18:00:00 17 3 Norte 7 Norte 0 -- -- 74
2018-05-20 17:00:00 16.3 4 Norte 13 Este 0 -- -- 76
2018-05-20 16:00:00 16.8 8 Norte 21 Norte 0.2 -- -- 73
2018-05-20 15:00:00 18.6 7 Norte 17 Nordeste 0 -- -- 60
2018-05-20 14:00:00 18.1 4 Norte 20 Norte 0 -- -- 64
2018-05-20 13:00:00 19.1 10 Norte 19 Norte 0 -- -- 60
2018-05-20 12:00:00 16.8 6 Norte 10 Norte 0 -- -- 69
2018-05-20 11:00:00 14.5 2 Nordeste 5 Nordeste 0 -- -- 72
2018-05-20 10:00:00 12.7 0 Calma 5 Sur 0 -- -- 86
2018-05-20 09:00:00 9.3 0 Calma 9 Nordeste 0 -- -- 97
2018-05-20 08:00:00 8.3 3 Sudoeste 9 Sudoeste 0 -- -- 98
2018-05-20 07:00:00 7.5 0 Calma 10 Sudoeste 0 -- -- 98
2018-05-20 06:00:00 7.9 6 Sudoeste 10 Sudoeste 0 -- -- 99
2018-05-20 05:00:00 8.6 2 Nordeste 6 Norte 0 -- -- 99
2018-05-20 04:00:00 9 2 Nordeste 6 Sudoeste 0 -- -- 99
2018-05-20 03:00:00 9.4 2 Sudoeste 5 Sudoeste 0 -- -- 98
2018-05-20 02:00:00 10.2 0 Calma 7 Sudoeste 0 -- -- 96
2018-05-20 01:00:00 11.2 3 Sudoeste 9 Sudoeste 0 -- -- 95
2018-05-20 00:00:00 11.4 0 Calma 3 Sur 0 -- -- 96
2018-05-19 23:00:00 11.6 0 Calma 5 Sur 0 -- -- 96
2018-05-19 22:00:00 11.9 0 Calma 4 Sur 0 -- -- 94
2018-05-19 21:00:00 13 0 Calma 4 Sudoeste 0 -- -- 91
2018-05-19 20:00:00 14.8 2 Norte 9 Sur 0 -- -- 87
2018-05-19 19:00:00 14.9 4 Sudoeste 18 Oeste 0 -- -- 84
2018-05-19 18:00:00 14.7 17 Sudoeste 28 Oeste 0.2 -- -- 74
2018-05-19 17:00:00 15 5 Sur 26 Nordeste 0.6 -- -- 84
2018-05-19 16:00:00 16.9 5 Norte 30 Norte 0 -- -- 65
2018-05-19 15:00:00 18.8 17 Norte 36 Norte 0 -- -- 58
2018-05-19 14:00:00 18.5 6 Nordeste 11 Nordeste 0 -- -- 61
2018-05-19 13:00:00 16.1 2 Noroeste 4 Norte 0 -- -- 70
2018-05-19 12:00:00 14.3 0 Calma 12 Norte 0 -- -- 73
2018-05-19 11:00:00 13.9 5 Norte 11 Norte 0 -- -- 72
2018-05-19 10:00:00 13 3 Nordeste 7 Norte 0 -- -- 79
2018-05-19 09:00:00 9.1 3 Sur 13 Sudoeste 0 -- -- 95
2018-05-19 08:00:00 7.9 13 Sudoeste 17 Sudoeste 0 -- -- 96
2018-05-19 07:00:00 7.3 7 Sudoeste 12 Sudoeste 0 -- -- 98
2018-05-19 06:00:00 7.1 5 Sur 12 Sudoeste 0 -- -- 99
2018-05-19 05:00:00 7 0 Calma 8 Sudoeste 0 -- -- 99
2018-05-19 04:00:00 8.1 0 Calma 10 Sur 0 -- -- 98
2018-05-19 03:00:00 8.8 8 Sudoeste 12 Sur 0 -- -- 98
2018-05-19 02:00:00 9.6 5 Sudoeste 10 Sudoeste 0 -- -- 98
2018-05-19 01:00:00 10.4 5 Sudoeste 6 Sudoeste 0 -- -- 98
2018-05-19 00:00:00 10.7 2 Sudoeste 5 Sudoeste 0 -- -- 97
2018-05-18 23:00:00 11.9 2 Sudoeste 5 Sur 0 -- -- 97
2018-05-18 22:00:00 12.5 2 Sur 3 Sur 0 -- -- 97
2018-05-18 21:00:00 13.1 0 Calma 5 Sudoeste 0 -- -- 95
2018-05-18 20:00:00 14 0 Calma 4 Sudoeste 0 -- -- 94
2018-05-18 19:00:00 14.3 2 Este 6 Sudoeste 0 -- -- 91
2018-05-18 18:00:00 14.2 3 Sudoeste 35 Norte 1.2 -- -- 90
2018-05-18 17:00:00 17.9 16 Norte 33 Norte 0 -- -- 63
2018-05-18 16:00:00 19.1 10 Norte 21 Norte 0 -- -- 58
2018-05-18 15:00:00 20.4 12 Norte 26 Norte 0 -- -- 54
2018-05-18 14:00:00 19.2 15 Norte 31 Norte 0 -- -- 58
2018-05-18 13:00:00 18.9 11 Norte 23 Norte 0 -- -- 57
2018-05-18 12:00:00 18.5 10 Norte 19 Norte 0 -- -- 57
2018-05-18 11:00:00 17.1 4 Norte 9 Norte 0 -- -- 63
2018-05-18 10:00:00 13.8 0 Calma 5 Nordeste 0 -- -- 77
2018-05-18 09:00:00 8.6 3 Sur 8 Sudoeste 0 -- -- 96
2018-05-18 08:00:00 7.5 4 Sudoeste 12 Sudoeste 0 -- -- 96
2018-05-18 07:00:00 7.4 8 Sudoeste 14 Sudoeste 0 -- -- 96
2018-05-18 06:00:00 8.1 5 Sudoeste 12 Sudoeste 0 -- -- 96
2018-05-18 05:00:00 9.4 6 Sudoeste 14 Sur 0 -- -- 93
2018-05-18 04:00:00 10.4 5 Sur 10 Sur 0 -- -- 94
2018-05-18 03:00:00 10.2 5 Sudoeste 8 Sudoeste 0 -- -- 98
2018-05-18 02:00:00 10.3 2 Sudoeste 5 Sudoeste 0 -- -- 96
2018-05-18 01:00:00 10.9 0 Calma 4 Sudoeste 0 -- -- 96
2018-05-18 00:00:00 11.3 2 Sudoeste 4 Sur 0 -- -- 95
2018-05-17 23:00:00 12.4 0 Calma 5 Este 0 -- -- 92
2018-05-17 22:00:00 13 0 Calma 4 Sur 0 -- -- 88
2018-05-17 21:00:00 14.7 0 Calma 17 Norte 0 -- -- 81
2018-05-17 20:00:00 16 4 Norte 14 Norte 0 -- -- 69
2018-05-17 19:00:00 16.5 6 Norte 25 Norte 0 -- -- 67
2018-05-17 18:00:00 16.9 8 Norte 22 Nordeste 0 -- -- 66
2018-05-17 17:00:00 17.5 10 Norte 22 Norte 0 -- -- 64
2018-05-17 16:00:00 17.8 9 Norte 27 Norte 0 -- -- 62
2018-05-17 15:00:00 19.5 12 Norte 26 Norte 0 -- -- 60
2018-05-17 14:00:00 19.6 9 Norte 20 Norte 0 -- -- 53
2018-05-17 13:00:00 19.1 9 Norte 19 Nordeste 0 -- -- 52
2018-05-17 12:00:00 17.4 9 Norte 15 Norte 0 -- -- 58
2018-05-17 11:00:00 15.5 6 Norte 12 Norte 0 -- -- 60
2018-05-17 10:00:00 12.8 3 Este 5 Este 0 -- -- 76
2018-05-17 09:00:00 7.9 3 Sur 7 Sur 0 -- -- 94
2018-05-17 08:00:00 7.4 3 Sudoeste 14 Sudoeste 0 -- -- 93
2018-05-17 07:00:00 8 8 Sudoeste 17 Sudoeste 0 -- -- 91
2018-05-17 06:00:00 9.5 12 Sudoeste 21 Sudoeste 0 -- -- 89
2018-05-17 05:00:00 9.6 9 Sudoeste 16 Sudoeste 0 -- -- 90
2018-05-17 04:00:00 10 4 Sur 7 Sudoeste 0 -- -- 96
2018-05-17 03:00:00 10.4 0 Calma 5 Sudoeste 0 -- -- 98
2018-05-17 02:00:00 10.4 0 Calma 5 Sudoeste 0 -- -- 98
2018-05-17 01:00:00 10.5 0 Calma 4 Nordeste 0 -- -- 98
2018-05-17 00:00:00 10.7 0 Calma 3 Oeste 0 -- -- 96
2018-05-16 23:00:00 11.4 0 Calma 3 Sudoeste 0 -- -- 95
2018-05-16 22:00:00 12 2 Sudoeste 7 Norte 0 -- -- 92
2018-05-16 21:00:00 13.4 0 Calma 10 Noroeste 0 -- -- 84
2018-05-16 20:00:00 14.5 5 Norte 16 Norte 0 -- -- 78
2018-05-16 19:00:00 14.7 2 Norte 9 Norte 0 -- -- 78
2018-05-16 18:00:00 15.5 3 Norte 12 Norte 0 -- -- 76
2018-05-16 17:00:00 16.2 4 Norte 12 Nordeste 0 -- -- 71
2018-05-16 16:00:00 17.4 3 Sudoeste 12 Norte 0 -- -- 61
2018-05-16 15:00:00 16.1 2 Noroeste 12 Norte 0 -- -- 73
2018-05-16 14:00:00 12.8 3 Norte 9 Norte 0 -- -- 86
2018-05-16 13:00:00 10.8 2 Noroeste 4 Norte 0.2 -- -- 93
2018-05-16 12:00:00 9.8 0 Calma 4 Norte 0 -- -- 94
2018-05-16 11:00:00 9.5 3 Nordeste 6 Sudoeste 0 -- -- 94
2018-05-16 10:00:00 8.9 0 Calma 5 Norte 0 -- -- 96
2018-05-16 09:00:00 7.6 0 Calma 8 Nordeste 0 -- -- 100
2018-05-16 08:00:00 6.4 0 Calma 6 Sudoeste 0 -- -- 100
2018-05-16 07:00:00 5.4 0 Calma 6 Sur 0 -- -- 100
2018-05-16 06:00:00 4.8 6 Sudoeste 8 Sudoeste 0 -- -- 99
2018-05-16 05:00:00 6.1 2 Nordeste 10 Sudoeste 0 -- -- 99
2018-05-16 04:00:00 6.7 6 Sudoeste 17 Sur 0 -- -- 98
2018-05-16 03:00:00 7.4 3 Sudoeste 14 Sudoeste 0 -- -- 99
2018-05-16 02:00:00 7.5 5 Sudoeste 9 Sudoeste 0 -- -- 100
2018-05-16 01:00:00 7.6 0 Calma 6 Sudoeste 0 -- -- 100
2018-05-16 00:00:00 7.6 3 Sudoeste 10 Oeste 0.6 -- -- 100
2018-05-15 23:00:00 7.6 5 Sudoeste 10 Sudoeste 0.2 -- -- 100
2018-05-15 22:00:00 7.7 0 Calma 4 Este 0.2 -- -- 100
2018-05-15 21:00:00 7.8 0 Calma 3 Oeste 0.2 -- -- 99
2018-05-15 20:00:00 7.9 0 Calma 6 Sudoeste 0 -- -- 98
2018-05-15 19:00:00 7.9 3 Sudoeste 6 Sudoeste 0.2 -- -- 98
2018-05-15 18:00:00 7.9 0 Calma 3 Norte 0.8 -- -- 98
2018-05-15 17:00:00 7.9 0 Calma 3 Norte 0.2 -- -- 98
2018-05-15 16:00:00 7.8 0 Calma 4 Nordeste 0.6 -- -- 97
2018-05-15 15:00:00 8 0 Calma 4 Oeste 0.4 -- -- 96
2018-05-15 14:00:00 7.9 0 Calma 4 Sur 0.6 -- -- 94
2018-05-15 13:00:00 7.4 0 Calma 4 Sudoeste 0.4 -- -- 96
2018-05-15 12:00:00 6.7 0 Calma 3 Nordeste 1 -- -- 96
2018-05-15 11:00:00 6.2 0 Calma 9 Sudoeste 0 -- -- 97
2018-05-15 10:00:00 5.8 5 Oeste 12 Sudoeste 1.2 -- -- 98
2018-05-15 09:00:00 5.5 2 Sudoeste 4 Oeste 0 -- -- 99
2018-05-15 08:00:00 5.2 2 Nordeste 5 Sudoeste 0 -- -- 99
2018-05-15 07:00:00 5.1 3 Sudoeste 12 Sudoeste 0 -- -- 99
2018-05-15 06:00:00 5 7 Sudoeste 15 Sudoeste 0.2 -- -- 98
2018-05-15 05:00:00 5.1 6 Sudoeste 10 Sudoeste 0.2 -- -- 99
2018-05-15 04:00:00 5.1 0 Calma 3 Sur 0.6 -- -- 99
2018-05-15 03:00:00 5.1 0 Calma 2 Sur 0.4 -- -- 99
2018-05-15 02:00:00 5.1 0 Calma 4 Norte 0.4 -- -- 99
2018-05-15 01:00:00 5.1 0 Calma 5 Nordeste 0.6 -- -- 99
2018-05-15 00:00:00 5.1 0 Calma 5 Nordeste 0.4 -- -- 99
2018-05-14 23:00:00 5.3 3 Nordeste 5 Nordeste 0.2 -- -- 98
2018-05-14 22:00:00 5.4 2 Norte 3 Nordeste 0.4 -- -- 98
2018-05-14 21:00:00 5.4 3 Nordeste 10 Este 0.6 -- -- 97
2018-05-14 20:00:00 5.6 5 Nordeste 12 Norte 0.4 -- -- 97
2018-05-14 19:00:00 6 3 Norte 14 Norte 0.4 -- -- 96
2018-05-14 18:00:00 6.4 5 Norte 17 Nordeste 0.2 -- -- 92
2018-05-14 17:00:00 6.7 8 Nordeste 17 Norte 0.2 -- -- 91
2018-05-14 16:00:00 7.7 3 Norte 10 Norte 0 -- -- 81
2018-05-14 15:00:00 8.2 6 Norte 12 Norte 0.4 -- -- 83
2018-05-14 14:00:00 7.6 3 Norte 8 Norte 0.2 -- -- 87
2018-05-14 13:00:00 6.1 2 Norte 18 Nordeste 0.2 -- -- 88
2018-05-14 12:00:00 6.4 6 Norte 16 Norte 0 -- -- 86
2018-05-14 11:00:00 6.3 7 Norte 13 Norte 0 -- -- 87
2018-05-14 10:00:00 5.8 2 Norte 6 Norte 0 -- -- 87
2018-05-14 09:00:00 4.9 5 Norte 9 Norte 0 -- -- 94
2018-05-14 08:00:00 3.9 0 Calma 5 Sur 0 -- -- 100
2018-05-14 07:00:00 3.5 0 Calma 5 Este 0 -- -- 99
2018-05-14 06:00:00 3.2 0 Calma 4 Sur 0 -- -- 99
2018-05-14 05:00:00 2.9 2 Sudoeste 4 Sur 0 -- -- 97
2018-05-14 04:00:00 3.9 0 Calma 5 Nordeste 0 -- -- 97
2018-05-14 03:00:00 4.5 0 Calma 4 Nordeste 0.2 -- -- 98
2018-05-14 02:00:00 4.5 2 Nordeste 5 Nordeste 0.4 -- -- 97
2018-05-14 01:00:00 4.6 0 Calma 4 Este 0 -- -- 97
2018-05-11 20:00:00 -- -- -- -- -- -- -- -- --
2018-05-11 19:00:00 20.2 6 Norte 23 Nordeste 0 -- -- 51
2018-05-11 18:00:00 21.9 13 Norte 27 Norte 0 -- -- 44
2018-05-11 17:00:00 22.7 13 Norte 28 Norte 0 -- -- 41
2018-05-11 16:00:00 23.1 14 Norte 31 Norte 0 -- -- 37
2018-05-11 15:00:00 23.2 14 Norte 26 Norte 0 -- -- 34
2018-05-11 14:00:00 23 12 Norte 24 Nordeste 0 -- -- 29
2018-05-11 13:00:00 22.1 9 Norte 18 Nordeste 0 -- -- 34
2018-05-11 12:00:00 20 4 Norte 10 Nordeste 0 -- -- 49
2018-05-11 11:00:00 15.8 2 Este 7 Este 0 -- -- 66
2018-05-11 10:00:00 12 3 Sudeste 6 Sur 0 -- -- 78
2018-05-11 09:00:00 4.9 2 Sudeste 6 Sur 0 -- -- 100
2018-05-11 08:00:00 3.2 2 Sudeste 6 Norte 0 -- -- 100
2018-05-11 07:00:00 2.5 2 Sudoeste 6 Sudoeste 0 -- -- 100
2018-05-11 06:00:00 2.9 0 Calma 5 Oeste 0 -- -- 99
2018-05-11 05:00:00 3.3 4 Sudoeste 6 Sudoeste 0 -- -- 99
2018-05-11 04:00:00 4.1 0 Calma 5 Sudoeste 0 -- -- 98
2018-05-11 03:00:00 4.4 4 Sudoeste 8 Sudoeste 0 -- -- 97
2018-05-11 02:00:00 5.5 5 Sur 15 Sudoeste 0 -- -- 97
2018-05-11 01:00:00 6.1 9 Sudoeste 15 Sudoeste 0 -- -- 96
2018-05-11 00:00:00 7.1 5 Sudoeste 9 Sur 0 -- -- 95
2018-05-10 23:00:00 9.1 2 Sur 4 Sudoeste 0 -- -- 89
2018-05-10 22:00:00 10.4 0 Calma 7 Sudoeste 0 -- -- 88
2018-05-10 21:00:00 11.2 5 Sudoeste 8 Sur 0 -- -- 83
2018-05-10 20:00:00 12 4 Sur 9 Sur 0 -- -- 76
2018-05-10 19:00:00 12.5 6 Sur 10 Sudoeste 0 -- -- 73
2018-05-10 18:00:00 13.1 4 Oeste 10 Oeste 0 -- -- 65
2018-05-10 17:00:00 13.1 3 Noroeste 16 Norte 0 -- -- 64
2018-05-10 16:00:00 13.4 7 Norte 15 Norte 0 -- -- 62
2018-05-10 15:00:00 13.5 5 Norte 17 Norte 0 -- -- 63
2018-05-10 14:00:00 13 7 Norte 20 Norte 0 -- -- 67
2018-05-10 13:00:00 13.4 11 Norte 19 Nordeste 0 -- -- 67
2018-05-10 12:00:00 12 12 Norte 20 Norte 0 -- -- 74
2018-05-10 11:00:00 10.4 9 Nordeste 17 Norte 0 -- -- 81
2018-05-10 10:00:00 9.3 7 Nordeste 16 Norte 0 -- -- 85
2018-05-10 09:00:00 8.4 4 Norte 10 Este 0 -- -- 88
2018-05-10 08:00:00 7.7 3 Nordeste 13 Norte 0 -- -- 90
2018-05-10 07:00:00 7.6 4 Norte 21 Norte 0 -- -- 90
2018-05-10 06:00:00 8.3 7 Norte 18 Norte 0.2 -- -- 93
2018-05-10 05:00:00 8.7 7 Norte 20 Norte 0.2 -- -- 94
2018-05-10 04:00:00 9.4 5 Norte 16 Norte 0 -- -- 92
2018-05-10 03:00:00 9.8 5 Norte 18 Norte 0 -- -- 92
2018-05-10 02:00:00 10.9 6 Norte 17 Norte 0 -- -- 84
2018-05-10 01:00:00 11.4 5 Nordeste 16 Norte 0 -- -- 85
2018-05-10 00:00:00 11.9 4 Norte 16 Nordeste 0 -- -- 86
2018-05-09 23:00:00 12.6 4 Nordeste 12 Norte 0 -- -- 86
2018-05-09 22:00:00 13.1 3 Nordeste 14 Nordeste 0 -- -- 82
2018-05-09 21:00:00 13.7 4 Norte 13 Noroeste 0 -- -- 79
2018-05-09 20:00:00 14.4 4 Norte 17 Norte 0 -- -- 76
2018-05-09 19:00:00 15 7 Norte 27 Norte 0 -- -- 73
2018-05-09 18:00:00 15.8 9 Norte 24 Norte 0 -- -- 70
2018-05-09 17:00:00 16.8 12 Norte 25 Norte 0 -- -- 65
2018-05-09 16:00:00 18 13 Norte 30 Norte 0 -- -- 63
2018-05-09 15:00:00 18.1 14 Norte 28 Norte 0 -- -- 62
2018-05-09 14:00:00 17.3 14 Norte 25 Norte 0 -- -- 63
2018-05-09 13:00:00 17.4 10 Norte 22 Norte 0 -- -- 66
2018-05-09 12:00:00 16.4 13 Norte 22 Norte 0 -- -- 70
2018-05-09 11:00:00 14.9 0 Calma 5 Nordeste 0 -- -- 75
2018-05-09 10:00:00 13.5 4 Sur 12 Sudoeste 0 -- -- 80
2018-05-09 09:00:00 9.9 0 Calma 11 Norte 0 -- -- 91
2018-05-09 08:00:00 9.5 6 Nordeste 17 Nordeste 0 -- -- 93
2018-05-09 07:00:00 9.7 6 Norte 15 Norte 0 -- -- 97
2018-05-09 06:00:00 10.3 0 Calma 15 Nordeste 0.4 -- -- 97
2018-05-09 05:00:00 10.8 4 Nordeste 10 Norte 0 -- -- 97
2018-05-09 04:00:00 10.9 3 Nordeste 7 Norte 0 -- -- 99
2018-05-09 03:00:00 10.8 0 Calma 4 Norte 0 -- -- 99
2018-05-09 02:00:00 11.1 0 Calma 2 Sur 0 -- -- 97
2018-05-09 01:00:00 11.6 0 Calma 4 Norte 0 -- -- 96
2018-05-09 00:00:00 12 0 Calma 11 Nordeste 0 -- -- 92
2018-05-08 23:00:00 12.4 4 Norte 15 Nordeste 0 -- -- 89
2018-05-08 22:00:00 12.4 0 Calma 4 Sur 0 -- -- 94
2018-05-08 21:00:00 13.6 0 Calma 14 Norte 0 -- -- 87
2018-05-08 20:00:00 14.5 6 Norte 22 Norte 0 -- -- 81
2018-05-08 19:00:00 15.8 0 Calma 3 Noroeste 0 -- -- 86
2018-05-08 18:00:00 16.1 0 Calma 9 Sudoeste 0 -- -- 82
2018-05-08 17:00:00 15.7 7 Sudoeste 12 Sudoeste 0 -- -- 82
2018-05-08 16:00:00 13.4 0 Calma 4 Oeste 0 -- -- 94
2018-05-08 15:00:00 12.3 0 Calma -- -- 0 -- -- 97
2018-05-08 14:00:00 12.3 0 Calma 4 Norte 0.2 -- -- 95
2018-05-08 13:00:00 11.9 0 Calma 4 Sudoeste 0.6 -- -- 96
2018-05-08 12:00:00 11.9 0 Calma 14 Sudoeste 0 -- -- 93
2018-05-08 11:00:00 12.1 6 Sudoeste 12 Sudoeste 0 -- -- 93
2018-05-08 10:00:00 11.1 10 Sudoeste 16 Sudoeste 0.8 -- -- 94
2018-05-08 09:00:00 9.8 4 Nordeste 10 Norte 0 -- -- 95
2018-05-08 08:00:00 9.9 2 Sur 20 Sudoeste 0 -- -- 93
2018-05-08 07:00:00 9.3 4 Sudoeste 22 Oeste 0 -- -- 93
2018-05-08 06:00:00 9.5 9 Sudoeste 30 Sudoeste 0 -- -- 88
2018-05-08 05:00:00 9.6 17 Sudoeste 35 Sudoeste 0 -- -- 86
2018-05-08 04:00:00 9.6 12 Sudoeste 33 Sudoeste 0.6 -- -- 89
2018-05-08 03:00:00 10.8 14 Sudoeste 31 Sudoeste 3 -- -- 89
2018-05-08 02:00:00 11.3 8 Sudoeste 18 Oeste 8.2 -- -- 97
2018-05-08 01:00:00 12.1 2 Sudeste 27 Sudoeste 4.6 -- -- 97
2018-05-08 00:00:00 12.6 17 Sudoeste 26 Sudoeste 1.6 -- -- 93
2018-05-07 23:00:00 12.2 3 Sudoeste 18 Oeste 1.2 -- -- 97
2018-05-07 22:00:00 12.6 10 Sudoeste 14 Sudoeste 1.6 -- -- 96
2018-05-07 21:00:00 12.8 2 Sur 9 Sudoeste 2.2 -- -- 96
2018-05-07 20:00:00 13.4 3 Sudeste 33 Sudoeste 3.8 -- -- 92
2018-05-07 19:00:00 15.6 3 Sudeste 17 Nordeste 4 -- -- 93
2018-05-07 18:00:00 19.1 7 Nordeste 14 Norte 0 -- -- 74
2018-05-07 17:00:00 19.8 3 Norte 7 Oeste 0 -- -- 68
2018-05-07 16:00:00 19 0 Calma 23 Norte 0.2 -- -- 80
2018-05-07 15:00:00 23.1 8 Nordeste 19 Sudoeste 0 -- -- 48
2018-05-07 14:00:00 20.9 15 Sur 23 Sur 0 -- -- 58
2018-05-07 13:00:00 18.5 4 Sur 9 Norte 0 -- -- 75
2018-05-07 12:00:00 18.6 4 Sur 8 Norte 0 -- -- 65
2018-05-07 11:00:00 16.2 4 Nordeste 9 Nordeste 0 -- -- 74
2018-05-07 10:00:00 16.2 4 Nordeste 9 Sudoeste 0 -- -- 76
2018-05-07 09:00:00 13.1 6 Sudoeste 15 Sudoeste 0 -- -- 87
2018-05-07 08:00:00 11.5 5 Sudoeste 13 Sudoeste 0 -- -- 91
2018-05-07 07:00:00 10.4 0 Calma 10 Sur 0 -- -- 94
2018-05-07 06:00:00 10.3 3 Sur 12 Sudoeste 0 -- -- 95
2018-05-07 05:00:00 10.1 4 Sudoeste 10 Sudoeste 0 -- -- 95
2018-05-07 04:00:00 10.1 4 Sudeste 14 Sur 0 -- -- 95
2018-05-07 03:00:00 10.1 5 Sur 13 Sudoeste 0 -- -- 95
2018-05-07 02:00:00 11 4 Sur 16 Sudoeste 0 -- -- 93
2018-05-07 01:00:00 11.9 12 Sudoeste 18 Sudoeste 0 -- -- 92
2018-05-07 00:00:00 12.2 5 Sudoeste 12 Sudoeste 0 -- -- 92
2018-05-06 23:00:00 12.6 3 Sudoeste 12 Sudoeste 0 -- -- 91
2018-05-06 22:00:00 13 5 Sudoeste 11 Sudoeste 0 -- -- 92
2018-05-06 21:00:00 14 2 Oeste 5 Sur 0 -- -- 87
2018-05-06 20:00:00 16.4 2 Sur 12 Norte 0 -- -- 82
2018-05-06 19:00:00 19.6 9 Norte 21 Norte 0 -- -- 62
2018-05-06 18:00:00 20.3 9 Norte 18 Norte 0 -- -- 56
2018-05-06 17:00:00 21.2 4 Norte 21 Norte 0 -- -- 56
2018-05-06 16:00:00 20.4 13 Norte 23 Norte 0 -- -- 53
2018-05-06 15:00:00 20.3 10 Norte 19 Norte 0 -- -- 56
2018-05-06 14:00:00 20 9 Norte 19 Norte 0 -- -- 55
2018-05-06 13:00:00 18.8 9 Norte 15 Norte 0 -- -- 63
2018-05-06 12:00:00 16.6 3 Nordeste 6 Norte 0 -- -- 70
2018-05-06 11:00:00 13.5 2 Nordeste 6 Norte 0 -- -- 85
2018-05-06 10:00:00 11.7 2 Sur 5 Sur 0 -- -- 87
2018-05-06 09:00:00 6.7 3 Nordeste 18 Sudoeste 0 -- -- 98
2018-05-06 08:00:00 6 7 Sudoeste 17 Sudoeste 0 -- -- 98
2018-05-06 07:00:00 5.4 9 Sudoeste 14 Sudoeste 0 -- -- 100
2018-05-06 06:00:00 5.4 8 Sudoeste 17 Sudoeste 0 -- -- 98
2018-05-06 05:00:00 6.3 13 Sudoeste 19 Sudoeste 0 -- -- 98
2018-05-06 04:00:00 6.2 7 Sur 13 Sur 0 -- -- 98
2018-05-06 03:00:00 6.6 3 Sur 19 Sudoeste 0 -- -- 99
2018-05-06 02:00:00 6.7 5 Sudoeste 12 Sudoeste 0 -- -- 98
2018-05-06 01:00:00 7.5 6 Sur 14 Sudoeste 0 -- -- 98
2018-05-06 00:00:00 8.3 9 Sudoeste 16 Sudoeste 0 -- -- 98
2018-05-05 23:00:00 8.9 6 Sudoeste 10 Sudoeste 0 -- -- 98
2018-05-05 22:00:00 9.7 5 Sudoeste 11 Sur 0 -- -- 96
2018-05-05 21:00:00 11.2 2 Sur 6 Sudoeste 0 -- -- 93
2018-05-05 20:00:00 14.1 0 Calma 3 Sudeste 0 -- -- 89
2018-05-05 19:00:00 14.6 0 Calma 7 Norte 0 -- -- 86
2018-05-05 18:00:00 15 4 Nordeste 10 Nordeste 0 -- -- 79
2018-05-05 17:00:00 16.2 6 Sudoeste 18 Sudoeste 0 -- -- 74
2018-05-05 16:00:00 13.3 11 Sudoeste 16 Sudoeste 0 -- -- 86
2018-05-05 15:00:00 11.8 4 Oeste 8 Oeste 0 -- -- 93
2018-05-05 14:00:00 10.7 0 Calma 5 Sudoeste 0 -- -- 95
2018-05-05 13:00:00 10.1 3 Norte 5 Norte 0 -- -- 95
2018-05-05 12:00:00 9.7 0 Calma 5 Norte 0.2 -- -- 98
2018-05-05 11:00:00 9 0 Calma 4 Nordeste 1.2 -- -- 99
2018-05-05 10:00:00 8.8 0 Calma 5 Nordeste 0 -- -- 98
2018-05-05 09:00:00 8.5 3 Este 15 Sudoeste 0 -- -- 97
2018-05-05 08:00:00 7.9 7 Sudoeste 10 Sudoeste 0 -- -- 99
2018-05-05 07:00:00 7.6 0 Calma 8 Oeste 0 -- -- 99
2018-05-05 06:00:00 7.6 4 Sur 9 Sudoeste 0 -- -- 99
2018-05-05 05:00:00 7.6 4 Sur 7 Sudoeste 0 -- -- 100
2018-05-05 04:00:00 7.6 2 Sur 5 Sudoeste 0 -- -- 100
2018-05-05 03:00:00 7.6 3 Sudoeste 6 Sudoeste 0.2 -- -- 100
2018-05-05 02:00:00 7.6 0 Calma 6 Sudoeste 0.2 -- -- 100
2018-05-05 01:00:00 7.6 0 Calma 2 Este 0.6 -- -- 100
2018-05-05 00:00:00 7.6 0 Calma 5 Sudoeste 0.4 -- -- 99
2018-05-04 23:00:00 7.7 0 Calma 3 Nordeste 0.4 -- -- 99
2018-05-04 22:00:00 7.7 0 Calma 2 Nordeste 0 -- -- 98
2018-05-04 21:00:00 7.8 0 Calma 3 Nordeste 0 -- -- 97
2018-05-04 20:00:00 8 0 Calma 3 Nordeste 0 -- -- 96
2018-05-04 19:00:00 8.2 0 Calma 5 Sudoeste 0 -- -- 94
2018-05-04 18:00:00 8.3 7 Sudoeste 12 Sur 0 -- -- 91
2018-05-04 17:00:00 8.7 5 Sudoeste 9 Sudoeste 0 -- -- 89
2018-05-04 16:00:00 9.2 3 Sudoeste 9 Sudoeste 0 -- -- 84
2018-05-04 15:00:00 9.2 3 Sudoeste 4 Sur 0.2 -- -- 82
2018-05-04 14:00:00 8.8 0 Calma 4 Norte 0 -- -- 84
2018-05-04 13:00:00 8.2 0 Calma 6 Noroeste 0 -- -- 91
2018-05-04 12:00:00 7.4 2 Noroeste 6 Norte 0 -- -- 95
2018-05-04 11:00:00 7 3 Nordeste 6 Norte 0 -- -- 96
2018-05-04 10:00:00 6.4 0 Calma 4 Nordeste 0 -- -- 99
2018-05-04 09:00:00 6.1 2 Nordeste 7 Nordeste 0 -- -- 100
2018-05-04 08:00:00 5.8 0 Calma 5 Nordeste 0 -- -- 100
2018-05-04 07:00:00 5.5 0 Calma 5 Nordeste 0.4 -- -- 100
2018-05-04 06:00:00 5.6 3 Norte 5 Nordeste 0.4 -- -- 100
2018-05-04 05:00:00 5.6 0 Calma 4 Norte 0.4 -- -- 100
2018-05-04 04:00:00 5.7 2 Norte 3 Norte 0.2 -- -- 100
2018-05-04 03:00:00 5.7 2 Norte 4 Norte 0.2 -- -- 100
2018-05-04 02:00:00 5.8 3 Nordeste 5 Nordeste 0.2 -- -- 99
2018-05-04 01:00:00 6 0 Calma 6 Norte 0.8 -- -- 99
2018-05-04 00:00:00 6.4 5 Nordeste 10 Norte 0.6 -- -- 99
2018-05-03 23:00:00 6.5 4 Nordeste 6 Nordeste 1 -- -- 99
2018-05-03 22:00:00 6.6 0 Calma 6 Oeste 1.6 -- -- 99
2018-05-03 21:00:00 6.8 0 Calma 5 Nordeste 1 -- -- 98
2018-05-03 20:00:00 6.8 3 Nordeste 5 Este 0.6 -- -- 97
2018-05-03 19:00:00 6.9 2 Noroeste 4 Oeste 1.2 -- -- 97
2018-05-03 18:00:00 6.9 2 Nordeste 8 Norte 0 -- -- 96
2018-05-03 17:00:00 7.2 4 Norte 7 Nordeste 0 -- -- 93
2018-05-03 16:00:00 7.3 4 Norte 8 Norte 0.6 -- -- 93
2018-05-03 15:00:00 7.1 3 Norte 5 Norte 0.4 -- -- 92
2018-05-03 14:00:00 6.6 3 Nordeste 12 Norte 0.6 -- -- 93
2018-05-03 13:00:00 -- -- -- -- -- -- -- -- --
2018-05-03 12:00:00 -- -- -- -- -- -- -- -- --
2018-05-03 11:00:00 -- -- -- -- -- -- -- -- --
2018-05-03 10:00:00 -- -- -- -- -- -- -- -- --
2018-05-03 09:00:00 -- -- -- -- -- -- -- -- --
2018-05-03 08:00:00 -- -- -- -- -- -- -- -- --
2018-05-03 07:00:00 -- -- -- -- -- -- -- -- --
2018-05-03 06:00:00 -- -- -- -- -- -- -- -- --
2018-05-03 05:00:00 -- -- -- -- -- -- -- -- --
2018-05-03 04:00:00 -- -- -- -- -- -- -- -- --
2018-05-03 03:00:00 -- -- -- -- -- -- -- -- --
2018-05-03 02:00:00 -- -- -- -- -- -- -- -- --
2018-05-03 01:00:00 -- -- -- -- -- -- -- -- --
2018-05-03 00:00:00 -- -- -- -- -- -- -- -- --
2018-05-02 23:00:00 -- -- -- -- -- -- -- -- --
2018-05-02 22:00:00 -- -- -- -- -- -- -- -- --
2018-05-02 21:00:00 -- -- -- -- -- -- -- -- --
2018-05-02 20:00:00 -- -- -- -- -- -- -- -- --
2018-05-02 19:00:00 -- -- -- -- -- -- -- -- --
2018-05-02 18:00:00 -- -- -- -- -- -- -- -- --
2018-05-02 17:00:00 -- -- -- -- -- -- -- -- --
2018-05-02 16:00:00 -- -- -- -- -- -- -- -- --
2018-05-02 15:00:00 -- -- -- -- -- -- -- -- --
2018-05-02 14:00:00 -- -- -- -- -- -- -- -- --
2018-05-02 13:00:00 -- -- -- -- -- -- -- -- --
2018-05-02 12:00:00 -- -- -- -- -- -- -- -- --
2018-05-02 11:00:00 -- -- -- -- -- -- -- -- --
2018-05-02 10:00:00 -- -- -- -- -- -- -- -- --
2018-05-02 09:00:00 -- -- -- -- -- -- -- -- --
2018-05-02 08:00:00 -- -- -- -- -- -- -- -- --
2018-05-02 07:00:00 -- -- -- -- -- -- -- -- --
2018-05-02 06:00:00 -- -- -- -- -- -- -- -- --
2018-05-02 05:00:00 -- -- -- -- -- -- -- -- --
2018-05-02 04:00:00 -- -- -- -- -- -- -- -- --
2018-05-02 03:00:00 -- -- -- -- -- -- -- -- --
2018-05-02 02:00:00 -- -- -- -- -- -- -- -- --
2018-05-02 01:00:00 -- -- -- -- -- -- -- -- --
2018-05-02 00:00:00 -- -- -- -- -- -- -- -- --
2018-05-01 23:00:00 -- -- -- -- -- -- -- -- --
2018-05-01 22:00:00 -- -- -- -- -- -- -- -- --
2018-05-01 21:00:00 -- -- -- -- -- -- -- -- --
2018-05-01 20:00:00 -- -- -- -- -- -- -- -- --
2018-05-01 19:00:00 -- -- -- -- -- -- -- -- --
2018-05-01 18:00:00 -- -- -- -- -- -- -- -- --
2018-05-01 17:00:00 -- -- -- -- -- -- -- -- --
2018-05-01 16:00:00 -- -- -- -- -- -- -- -- --
2018-05-01 15:00:00 -- -- -- -- -- -- -- -- --
2018-05-01 14:00:00 -- -- -- -- -- -- -- -- --
2018-05-01 13:00:00 -- -- -- -- -- -- -- -- --
2018-05-01 12:00:00 -- -- -- -- -- -- -- -- --
2018-05-01 11:00:00 -- -- -- -- -- -- -- -- --
2018-05-01 10:00:00 -- -- -- -- -- -- -- -- --
2018-05-01 09:00:00 -- -- -- -- -- -- -- -- --
2018-05-01 08:00:00 -- -- -- -- -- -- -- -- --
2018-05-01 07:00:00 -- -- -- -- -- -- -- -- --
2018-05-01 06:00:00 -- -- -- -- -- -- -- -- --
2018-05-01 05:00:00 -- -- -- -- -- -- -- -- --
2018-05-01 04:00:00 -- -- -- -- -- -- -- -- --
2018-05-01 03:00:00 -- -- -- -- -- -- -- -- --
2018-05-01 02:00:00 -- -- -- -- -- -- -- -- --
2018-05-01 01:00:00 -- -- -- -- -- -- -- -- --
2018-05-01 00:00:00 -- -- -- -- -- -- -- -- --
2018-04-30 23:00:00 -- -- -- -- -- -- -- -- --
2018-04-30 22:00:00 -- -- -- -- -- -- -- -- --
2018-04-30 21:00:00 -- -- -- -- -- -- -- -- --
2018-04-30 20:00:00 -- -- -- -- -- -- -- -- --
2018-04-30 19:00:00 -- -- -- -- -- -- -- -- --
2018-04-30 18:00:00 -- -- -- -- -- -- -- -- --
2018-04-30 17:00:00 -- -- -- -- -- -- -- -- --
2018-04-30 16:00:00 -- -- -- -- -- -- -- -- --
2018-04-30 15:00:00 -- -- -- -- -- -- -- -- --
2018-04-30 14:00:00 -- -- -- -- -- -- -- -- --
2018-04-30 13:00:00 -- -- -- -- -- -- -- -- --
2018-04-30 12:00:00 -- -- -- -- -- -- -- -- --
2018-04-30 11:00:00 -- -- -- -- -- -- -- -- --
2018-04-30 10:00:00 -- -- -- -- -- -- -- -- --
2018-04-30 09:00:00 -- -- -- -- -- -- -- -- --
2018-04-30 08:00:00 -- -- -- -- -- -- -- -- --
2018-04-30 07:00:00 -- -- -- -- -- -- -- -- --
2018-04-30 06:00:00 -- -- -- -- -- -- -- -- --
2018-04-30 05:00:00 -- -- -- -- -- -- -- -- --
2018-04-30 04:00:00 -- -- -- -- -- -- -- -- --
2018-04-30 03:00:00 -- -- -- -- -- -- -- -- --
2018-04-30 02:00:00 -- -- -- -- -- -- -- -- --
2018-04-30 01:00:00 -- -- -- -- -- -- -- -- --
2018-04-30 00:00:00 -- -- -- -- -- -- -- -- --
2018-04-29 23:00:00 -- -- -- -- -- -- -- -- --
2018-04-29 22:00:00 -- -- -- -- -- -- -- -- --
2018-04-29 21:00:00 -- -- -- -- -- -- -- -- --
2018-04-29 20:00:00 -- -- -- -- -- -- -- -- --
2018-04-29 19:00:00 -- -- -- -- -- -- -- -- --
2018-04-29 18:00:00 -- -- -- -- -- -- -- -- --
2018-04-29 17:00:00 -- -- -- -- -- -- -- -- --
2018-04-29 16:00:00 -- -- -- -- -- -- -- -- --
2018-04-29 15:00:00 -- -- -- -- -- -- -- -- --
2018-04-29 14:00:00 -- -- -- -- -- -- -- -- --
2018-04-29 13:00:00 -- -- -- -- -- -- -- -- --
2018-04-29 12:00:00 -- -- -- -- -- -- -- -- --
2018-04-29 11:00:00 -- -- -- -- -- -- -- -- --
2018-04-29 10:00:00 -- -- -- -- -- -- -- -- --
2018-04-29 09:00:00 -- -- -- -- -- -- -- -- --
2018-04-29 08:00:00 -- -- -- -- -- -- -- -- --
2018-04-29 07:00:00 -- -- -- -- -- -- -- -- --
2018-04-29 06:00:00 -- -- -- -- -- -- -- -- --
2018-04-29 05:00:00 -- -- -- -- -- -- -- -- --
2018-04-29 04:00:00 -- -- -- -- -- -- -- -- --
2018-04-29 03:00:00 -- -- -- -- -- -- -- -- --
2018-04-29 02:00:00 -- -- -- -- -- -- -- -- --
2018-04-29 01:00:00 -- -- -- -- -- -- -- -- --
2018-04-29 00:00:00 -- -- -- -- -- -- -- -- --
2018-04-28 23:00:00 -- -- -- -- -- -- -- -- --
2018-04-28 22:00:00 -- -- -- -- -- -- -- -- --
2018-04-28 21:00:00 -- -- -- -- -- -- -- -- --
2018-04-28 20:00:00 -- -- -- -- -- -- -- -- --
2018-04-28 19:00:00 -- -- -- -- -- -- -- -- --
2018-04-28 18:00:00 -- -- -- -- -- -- -- -- --
2018-04-28 17:00:00 -- -- -- -- -- -- -- -- --
2018-04-28 16:00:00 -- -- -- -- -- -- -- -- --
2018-04-28 15:00:00 -- -- -- -- -- -- -- -- --
2018-04-28 14:00:00 -- -- -- -- -- -- -- -- --
2018-04-28 13:00:00 -- -- -- -- -- -- -- -- --
2018-04-28 12:00:00 -- -- -- -- -- -- -- -- --
2018-04-28 11:00:00 -- -- -- -- -- -- -- -- --
2018-04-28 10:00:00 -- -- -- -- -- -- -- -- --
2018-04-28 09:00:00 -- -- -- -- -- -- -- -- --
2018-04-28 08:00:00 -- -- -- -- -- -- -- -- --
2018-04-28 07:00:00 -- -- -- -- -- -- -- -- --
2018-04-28 06:00:00 -- -- -- -- -- -- -- -- --
2018-04-28 05:00:00 -- -- -- -- -- -- -- -- --
2018-04-28 04:00:00 -- -- -- -- -- -- -- -- --
2018-04-28 03:00:00 -- -- -- -- -- -- -- -- --
2018-04-28 02:00:00 -- -- -- -- -- -- -- -- --
2018-04-28 01:00:00 -- -- -- -- -- -- -- -- --
2018-04-28 00:00:00 -- -- -- -- -- -- -- -- --
2018-04-27 23:00:00 -- -- -- -- -- -- -- -- --
2018-04-27 22:00:00 -- -- -- -- -- -- -- -- --
2018-04-27 21:00:00 -- -- -- -- -- -- -- -- --
2018-04-27 20:00:00 -- -- -- -- -- -- -- -- --
2018-04-27 19:00:00 -- -- -- -- -- -- -- -- --
2018-04-27 18:00:00 -- -- -- -- -- -- -- -- --
2018-04-27 17:00:00 -- -- -- -- -- -- -- -- --
2018-04-27 16:00:00 -- -- -- -- -- -- -- -- --
2018-04-27 15:00:00 -- -- -- -- -- -- -- -- --
2018-04-27 14:00:00 -- -- -- -- -- -- -- -- --
2018-04-27 13:00:00 -- -- -- -- -- -- -- -- --
2018-04-27 12:00:00 -- -- -- -- -- -- -- -- --
2018-04-27 11:00:00 -- -- -- -- -- -- -- -- --
2018-04-27 10:00:00 -- -- -- -- -- -- -- -- --
2018-04-27 09:00:00 -- -- -- -- -- -- -- -- --
2018-04-27 08:00:00 -- -- -- -- -- -- -- -- --
2018-04-27 07:00:00 -- -- -- -- -- -- -- -- --
2018-04-27 06:00:00 -- -- -- -- -- -- -- -- --
2018-04-27 05:00:00 -- -- -- -- -- -- -- -- --
2018-04-27 04:00:00 -- -- -- -- -- -- -- -- --
2018-04-27 03:00:00 -- -- -- -- -- -- -- -- --
2018-04-27 02:00:00 -- -- -- -- -- -- -- -- --
2018-04-27 01:00:00 -- -- -- -- -- -- -- -- --
2018-04-27 00:00:00 -- -- -- -- -- -- -- -- --
2018-04-26 23:00:00 -- -- -- -- -- -- -- -- --
2018-04-26 22:00:00 -- -- -- -- -- -- -- -- --
2018-04-26 21:00:00 -- -- -- -- -- -- -- -- --
2018-04-26 20:00:00 -- -- -- -- -- -- -- -- --
2018-04-26 19:00:00 -- -- -- -- -- -- -- -- --
2018-04-26 18:00:00 -- -- -- -- -- -- -- -- --
2018-04-26 17:00:00 -- -- -- -- -- -- -- -- --
2018-04-26 16:00:00 -- -- -- -- -- -- -- -- --
2018-04-26 15:00:00 -- -- -- -- -- -- -- -- --
2018-04-26 14:00:00 -- -- -- -- -- -- -- -- --
2018-04-26 13:00:00 -- -- -- -- -- -- -- -- --
2018-04-26 12:00:00 -- -- -- -- -- -- -- -- --
2018-04-26 11:00:00 -- -- -- -- -- -- -- -- --
2018-04-26 10:00:00 -- -- -- -- -- -- -- -- --
2018-04-26 09:00:00 -- -- -- -- -- -- -- -- --
2018-04-26 08:00:00 -- -- -- -- -- -- -- -- --
2018-04-26 07:00:00 -- -- -- -- -- -- -- -- --
2018-04-26 06:00:00 -- -- -- -- -- -- -- -- --
2018-04-26 05:00:00 -- -- -- -- -- -- -- -- --
2018-04-26 04:00:00 -- -- -- -- -- -- -- -- --
2018-04-26 03:00:00 -- -- -- -- -- -- -- -- --
2018-04-26 02:00:00 -- -- -- -- -- -- -- -- --
2018-04-26 01:00:00 -- -- -- -- -- -- -- -- --
2018-04-26 00:00:00 -- -- -- -- -- -- -- -- --
2018-04-25 23:00:00 -- -- -- -- -- -- -- -- --
2018-04-25 22:00:00 -- -- -- -- -- -- -- -- --
2018-04-25 21:00:00 -- -- -- -- -- -- -- -- --
2018-04-25 20:00:00 -- -- -- -- -- -- -- -- --
2018-04-25 19:00:00 -- -- -- -- -- -- -- -- --
2018-04-25 18:00:00 -- -- -- -- -- -- -- -- --
2018-04-25 17:00:00 -- -- -- -- -- -- -- -- --
2018-04-25 16:00:00 -- -- -- -- -- -- -- -- --
2018-04-25 15:00:00 -- -- -- -- -- -- -- -- --
2018-04-25 14:00:00 -- -- -- -- -- -- -- -- --
2018-04-25 13:00:00 -- -- -- -- -- -- -- -- --
2018-04-25 12:00:00 -- -- -- -- -- -- -- -- --
2018-04-25 11:00:00 -- -- -- -- -- -- -- -- --
2018-04-25 10:00:00 -- -- -- -- -- -- -- -- --
2018-04-25 09:00:00 -- -- -- -- -- -- -- -- --
2018-04-25 08:00:00 -- -- -- -- -- -- -- -- --
2018-04-25 07:00:00 -- -- -- -- -- -- -- -- --
2018-04-25 06:00:00 -- -- -- -- -- -- -- -- --
2018-04-25 05:00:00 -- -- -- -- -- -- -- -- --
2018-04-25 04:00:00 -- -- -- -- -- -- -- -- --
2018-04-25 03:00:00 -- -- -- -- -- -- -- -- --
2018-04-25 02:00:00 -- -- -- -- -- -- -- -- --
2018-04-25 01:00:00 -- -- -- -- -- -- -- -- --
2018-04-25 00:00:00 -- -- -- -- -- -- -- -- --
2018-04-24 23:00:00 -- -- -- -- -- -- -- -- --
2018-04-24 22:00:00 -- -- -- -- -- -- -- -- --
2018-04-24 21:00:00 -- -- -- -- -- -- -- -- --
2018-04-24 20:00:00 -- -- -- -- -- -- -- -- --
2018-04-24 19:00:00 -- -- -- -- -- -- -- -- --
2018-04-24 18:00:00 -- -- -- -- -- -- -- -- --
2018-04-24 17:00:00 -- -- -- -- -- -- -- -- --
2018-04-24 16:00:00 -- -- -- -- -- -- -- -- --
2018-04-24 15:00:00 -- -- -- -- -- -- -- -- --
2018-04-24 14:00:00 -- -- -- -- -- -- -- -- --
2018-04-24 13:00:00 -- -- -- -- -- -- -- -- --
2018-04-24 12:00:00 -- -- -- -- -- -- -- -- --
2018-04-24 11:00:00 -- -- -- -- -- -- -- -- --
2018-04-24 10:00:00 -- -- -- -- -- -- -- -- --
2018-04-24 09:00:00 -- -- -- -- -- -- -- -- --
2018-04-24 08:00:00 -- -- -- -- -- -- -- -- --
2018-04-24 07:00:00 -- -- -- -- -- -- -- -- --
2018-04-24 06:00:00 -- -- -- -- -- -- -- -- --
2018-04-24 05:00:00 -- -- -- -- -- -- -- -- --
2018-04-24 04:00:00 -- -- -- -- -- -- -- -- --
2018-04-24 03:00:00 -- -- -- -- -- -- -- -- --
2018-04-24 02:00:00 -- -- -- -- -- -- -- -- --
2018-04-24 01:00:00 -- -- -- -- -- -- -- -- --
2018-04-24 00:00:00 -- -- -- -- -- -- -- -- --